Time;durP1;ratioP1;P1;durP2;ratioP2;P2;SDS_P1;SDS_P2;PMS_P1;PMS_P2;Temp;Humidity;BMP_temperature;BMP_pressure;BME280_temperature;BME280_humidity;BME280_pressure;Samples;Min_cycle;Max_cycle;Signal;HPM_P1;HPM_P2
2022/11/06 00:01:23;;;;;;;19.92;11.60;;;10.20;99.90;;;;;;5115024;28;20035;-72
2022/11/06 00:03:53;;;;;;;24.15;11.20;;;10.10;99.90;;;;;;5114937;28;20027;-72
2022/11/06 00:09:06;;;;;;;19.77;9.63;;;10.10;99.90;;;;;;5115051;28;20051;-72
2022/11/06 00:11:32;;;;;;;32.88;11.35;;;10.10;99.90;;;;;;5114946;28;20027;-72
2022/11/06 00:14:00;;;;;;;36.90;11.70;;;10.10;99.90;;;;;;5113657;28;20053;-72
2022/11/06 00:16:26;;;;;;;24.90;11.23;;;10.10;99.90;;;;;;5114833;28;20089;-72
2022/11/06 00:18:52;;;;;;;27.73;10.98;;;10.10;99.90;;;;;;5115041;28;20028;-72
2022/11/06 00:21:24;;;;;;;18.65;9.73;;;10.10;99.90;;;;;;5096696;28;20024;-72
2022/11/06 00:23:51;;;;;;;24.52;10.20;;;10.20;99.90;;;;;;5114860;28;20401;-73
2022/11/06 00:26:20;;;;;;;31.50;11.07;;;10.20;99.90;;;;;;5114896;28;20024;-73
2022/11/06 00:28:47;;;;;;;30.20;11.10;;;10.20;99.90;;;;;;5114927;28;20028;-72
2022/11/06 00:31:17;;;;;;;26.92;9.85;;;10.10;99.90;;;;;;5113637;28;20020;-72
2022/11/06 00:33:43;;;;;;;26.70;10.50;;;10.20;99.90;;;;;;5114882;28;20103;-72
2022/11/06 00:36:12;;;;;;;23.80;9.45;;;10.20;99.90;;;;;;5114991;28;20263;-72
2022/11/06 00:38:37;;;;;;;34.53;9.82;;;10.40;99.90;;;;;;5115017;28;20034;-72
2022/11/06 00:41:08;;;;;;;25.42;9.63;;;10.30;99.90;;;;;;5114774;28;20023;-72
2022/11/06 00:43:34;;;;;;;26.02;8.52;;;10.20;99.90;;;;;;5114817;28;20038;-72
2022/11/06 00:46:12;;;;;;;15.88;8.95;;;10.20;99.90;;;;;;5114896;28;20080;-72
2022/11/06 00:48:40;;;;;;;19.73;9.55;;;10.20;99.90;;;;;;5114528;28;20027;-72
2022/11/06 00:51:10;;;;;;;19.27;8.75;;;10.10;99.90;;;;;;5114741;28;20342;-72
2022/11/06 00:53:37;;;;;;;25.77;8.65;;;10.20;99.90;;;;;;5114662;28;20522;-72
2022/11/06 00:56:12;;;;;;;23.48;9.15;;;10.20;99.90;;;;;;5116156;28;20039;-72
2022/11/06 00:58:38;;;;;;;12.65;7.40;;;10.10;99.90;;;;;;5118122;28;20048;-72
2022/11/06 01:01:24;;;;;;;20.80;8.75;;;10.20;99.90;;;;;;5117112;28;20549;-72
2022/11/06 01:03:59;;;;;;;17.55;8.65;;;10.20;99.90;;;;;;5116876;28;20036;-72
2022/11/06 01:06:33;;;;;;;19.23;8.98;;;10.30;99.90;;;;;;5118137;28;20096;-72
2022/11/06 01:09:00;;;;;;;14.80;7.30;;;10.20;99.90;;;;;;5118099;28;20035;-72
2022/11/06 01:11:37;;;;;;;14.60;7.80;;;10.20;99.90;;;;;;5116793;28;20027;-72
2022/11/06 01:14:05;;;;;;;17.67;7.75;;;10.20;99.90;;;;;;5117979;28;20377;-72
2022/11/06 01:16:31;;;;;;;15.10;8.43;;;10.20;99.90;;;;;;5117821;28;20106;-73
2022/11/06 01:18:58;;;;;;;16.58;8.45;;;10.10;99.90;;;;;;5116610;28;20039;-72
2022/11/06 01:21:26;;;;;;;25.83;9.80;;;10.20;99.90;;;;;;5117713;28;20039;-73
2022/11/06 01:23:55;;;;;;;16.75;7.80;;;10.20;99.90;;;;;;5117784;28;20035;-73
2022/11/06 01:26:21;;;;;;;23.55;8.50;;;10.20;99.90;;;;;;5117624;28;20025;-72
2022/11/06 01:28:48;;;;;;;12.75;7.95;;;10.30;99.90;;;;;;5117590;28;20614;-72
2022/11/06 01:31:16;;;;;;;17.25;7.78;;;10.30;99.90;;;;;;5117552;28;20024;-72
2022/11/06 01:33:42;;;;;;;17.25;7.53;;;10.40;99.90;;;;;;5117697;28;20030;-72
2022/11/06 01:36:10;;;;;;;29.27;8.57;;;10.30;99.90;;;;;;5117609;28;20028;-72
2022/11/06 01:38:39;;;;;;;13.13;7.45;;;10.30;99.90;;;;;;5117426;28;20102;-72
2022/11/06 01:41:05;;;;;;;17.20;8.20;;;10.30;99.90;;;;;;5116171;28;20108;-72
2022/11/06 01:43:53;;;;;;;18.17;7.75;;;10.30;99.90;;;;;;5117333;28;20066;-72
2022/11/06 01:46:21;;;;;;;22.27;7.40;;;10.20;99.90;;;;;;5111566;28;20038;-72
2022/11/06 01:48:54;;;;;;;24.73;7.88;;;10.20;99.90;;;;;;5115757;28;20035;-72
2022/11/06 01:51:22;;;;;;;19.92;7.30;;;10.10;99.90;;;;;;5117190;27;20024;-72
2022/11/06 01:53:48;;;;;;;22.88;7.55;;;10.10;99.90;;;;;;5117198;28;20031;-72
2022/11/06 01:56:15;;;;;;;16.85;5.72;;;10.10;99.90;;;;;;5115713;28;20031;-73
2022/11/06 01:58:45;;;;;;;13.60;5.45;;;10.20;99.90;;;;;;5116915;28;20058;-72
2022/11/06 02:01:12;;;;;;;13.95;5.78;;;10.20;99.90;;;;;;5115800;28;20034;-72
2022/11/06 02:03:41;;;;;;;11.95;4.60;;;10.30;99.90;;;;;;5116892;28;20496;-72
2022/11/06 02:06:08;;;;;;;5.78;3.55;;;10.40;99.90;;;;;;5116891;28;20417;-72
2022/11/06 02:08:34;;;;;;;6.05;3.55;;;10.40;99.90;;;;;;5116785;28;20144;-72
2022/11/06 02:11:01;;;;;;;10.82;3.33;;;10.30;99.90;;;;;;5116751;28;20045;-72
2022/11/06 02:13:36;;;;;;;8.82;3.30;;;10.30;99.90;;;;;;5115497;28;20396;-73
2022/11/06 02:16:08;;;;;;;8.55;3.80;;;10.30;99.90;;;;;;5115522;28;20035;-72
2022/11/06 02:18:40;;;;;;;11.68;3.10;;;10.20;99.90;;;;;;5116669;28;20083;-73
2022/11/06 02:21:48;;;;;;;11.80;2.80;;;10.20;99.90;;;;;;5116642;28;20473;-72
2022/11/06 02:24:29;;;;;;;21.25;4.07;;;10.30;99.90;;;;;;5115319;28;20051;-72
2022/11/06 02:26:54;;;;;;;;;;;10.30;99.90;;;;;;5116848;28;20035;-72
2022/11/06 02:29:33;;;;;;;10.73;3.17;;;10.30;99.90;;;;;;5116446;28;19914;-72
2022/11/06 02:32:05;;;;;;;9.35;3.13;;;10.20;99.90;;;;;;5098177;28;20043;-72
2022/11/06 02:34:34;;;;;;;14.05;3.03;;;10.20;99.90;;;;;;5116483;28;20027;-72
2022/11/06 02:37:03;;;;;;;5.93;3.25;;;10.10;99.90;;;;;;5116322;28;20039;-71
2022/11/06 02:39:31;;;;;;;10.57;3.38;;;10.10;99.90;;;;;;5116347;28;20054;-72
2022/11/06 02:41:59;;;;;;;10.23;3.17;;;10.10;99.90;;;;;;5116135;28;20031;-72
2022/11/06 02:44:29;;;;;;;12.82;3.20;;;10.10;99.90;;;;;;5116187;28;20035;-72
2022/11/06 02:46:59;;;;;;;11.55;3.58;;;10.10;99.90;;;;;;5116059;28;20392;-72
2022/11/06 02:49:38;;;;;;;10.00;3.88;;;10.20;99.90;;;;;;5116038;28;20024;-72
2022/11/06 02:52:13;;;;;;;7.75;2.90;;;10.10;99.90;;;;;;5116330;28;20034;-72
2022/11/06 02:54:44;;;;;;;8.90;3.05;;;10.10;99.90;;;;;;5115993;28;20062;-72
2022/11/06 02:57:14;;;;;;;9.82;2.90;;;10.10;99.90;;;;;;5115938;28;20052;-72
2022/11/06 02:59:47;;;;;;;20.23;3.55;;;10.10;99.90;;;;;;5114808;28;20106;-72
2022/11/06 03:02:59;;;;;;;9.90;3.20;;;10.10;99.90;;;;;;5115893;28;20023;-72
2022/11/06 03:05:34;;;;;;;7.57;2.95;;;10.10;99.90;;;;;;5115610;28;20036;-72
2022/11/06 03:08:08;;;;;;;9.07;3.10;;;10.10;99.90;;;;;;5115721;28;20024;-72
2022/11/06 03:10:44;;;;;;;6.95;3.03;;;10.10;99.90;;;;;;5115910;28;20050;-72
2022/11/06 03:13:31;;;;;;;12.65;2.70;;;10.10;99.90;;;;;;5114542;28;20047;-72
2022/11/06 03:16:04;;;;;;;14.20;3.63;;;10.10;99.90;;;;;;5114478;28;20028;-72
2022/11/06 03:19:02;;;;;;;21.10;4.60;;;10.10;99.90;;;;;;5113978;28;20068;-72
2022/11/06 03:21:43;;;;;;;18.50;3.15;;;10.10;99.90;;;;;;5115622;28;20499;-72
2022/11/06 03:24:17;;;;;;;13.30;3.20;;;10.10;99.90;;;;;;5148982;27;20089;-72
2022/11/06 03:26:49;;;;;;;8.88;2.58;;;10.10;99.90;;;;;;5115681;28;20028;-72
2022/11/06 03:29:38;;;;;;;8.05;2.45;;;10.10;99.90;;;;;;5115444;28;20480;-72
2022/11/06 03:32:10;;;;;;;11.43;2.00;;;10.10;99.90;;;;;;5115742;28;20055;-72
2022/11/06 03:34:49;;;;;;;4.68;1.77;;;10.10;99.90;;;;;;5114259;28;20054;-73
2022/11/06 03:37:29;;;;;;;6.82;2.08;;;10.10;99.90;;;;;;5114453;28;20035;-73
2022/11/06 03:40:00;;;;;;;9.70;2.58;;;10.20;99.90;;;;;;5115458;28;20032;-73
2022/11/06 03:42:29;;;;;;;7.47;2.05;;;10.30;99.90;;;;;;5115463;28;20087;-72
2022/11/06 03:44:59;;;;;;;15.85;2.75;;;10.20;99.90;;;;;;5115422;28;20358;-73
2022/11/06 03:47:36;;;;;;;15.63;3.17;;;10.20;99.90;;;;;;5115314;28;20531;-72
2022/11/06 03:50:24;;;;;;;11.73;2.80;;;10.10;99.90;;;;;;5115417;28;20549;-72
2022/11/06 03:52:59;;;;;;;6.57;2.10;;;10.20;99.90;;;;;;5115429;28;20372;-72
2022/11/06 03:55:31;;;;;;;7.35;2.10;;;10.10;99.90;;;;;;5114269;28;20027;-72
2022/11/06 03:58:05;;;;;;;8.93;2.35;;;10.10;99.90;;;;;;5115380;28;20040;-72
2022/11/06 04:00:35;;;;;;;7.28;2.55;;;10.20;99.90;;;;;;5114016;28;20032;-72
2022/11/06 04:03:06;;;;;;;6.95;1.98;;;10.30;99.90;;;;;;5115025;28;20049;-72
2022/11/06 04:05:38;;;;;;;5.72;1.73;;;10.30;99.90;;;;;;5115061;28;20106;-72
2022/11/06 04:13:57;;;;;;;3.22;2.20;;;10.10;99.90;;;;;;5115222;28;20400;-72
2022/11/06 04:16:25;;;;;;;10.00;2.55;;;10.10;99.90;;;;;;5113644;28;20477;-73
2022/11/06 04:18:51;;;;;;;10.40;2.30;;;10.10;99.90;;;;;;5115239;28;20102;-72
2022/11/06 04:21:25;;;;;;;9.32;2.38;;;10.20;99.90;;;;;;5115155;28;20497;-72
2022/11/06 04:26:34;;;;;;;10.77;2.47;;;10.20;99.90;;;;;;5115105;28;20381;-72
2022/11/06 04:26:46;;;;;;;7.47;2.60;;;10.20;99.90;;;;;;5114967;28;20031;-72
2022/11/06 04:29:39;;;;;;;12.05;3.17;;;10.20;99.90;;;;;;5115051;28;20034;-72
2022/11/06 04:32:38;;;;;;;15.38;3.30;;;10.30;99.90;;;;;;5152189;27;20024;-72
2022/11/06 04:35:28;;;;;;;19.30;3.58;;;10.20;99.90;;;;;;5118947;28;20030;-72
2022/11/06 04:38:01;;;;;;;6.45;2.47;;;10.10;99.90;;;;;;5119017;27;20028;-73
2022/11/06 04:40:46;;;;;;;7.40;2.55;;;10.20;99.90;;;;;;5118744;28;20035;-73
2022/11/06 04:43:22;;;;;;;6.07;1.92;;;10.10;99.90;;;;;;5118664;28;20110;-73
2022/11/06 04:45:53;;;;;;;11.07;1.83;;;10.20;99.90;;;;;;5118800;28;20028;-73
2022/11/06 04:48:19;;;;;;;;;;;10.20;99.90;;;;;;5118866;28;20058;-74
2022/11/06 04:50:52;;;;;;;8.73;2.20;;;10.30;99.90;;;;;;5118727;28;19931;-73
2022/11/06 04:53:20;;;;;;;16.73;2.40;;;10.30;99.90;;;;;;5118479;28;20089;-73
2022/11/06 04:55:58;;;;;;;7.45;2.03;;;10.20;99.90;;;;;;5118500;28;20169;-73
2022/11/06 04:58:24;;;;;;;6.75;2.90;;;10.10;99.90;;;;;;5118300;28;20131;-73
2022/11/06 05:00:50;;;;;;;11.77;2.30;;;10.10;99.90;;;;;;5118404;28;20545;-73
2022/11/06 05:03:17;;;;;;;13.10;2.25;;;10.10;99.90;;;;;;5118555;28;20391;-73
2022/11/06 05:05:43;;;;;;;8.95;2.35;;;10.10;99.90;;;;;;5118454;28;20027;-73
2022/11/06 05:08:15;;;;;;;7.45;2.45;;;10.10;99.90;;;;;;5118170;28;20110;-73
2022/11/06 05:10:42;;;;;;;11.90;2.17;;;10.10;99.90;;;;;;5116967;28;20031;-73
2022/11/06 05:13:08;;;;;;;7.38;2.55;;;10.10;99.90;;;;;;5116791;28;20027;-73
2022/11/06 05:15:34;;;;;;;4.95;2.20;;;10.10;99.90;;;;;;5117975;28;20464;-73
2022/11/06 05:18:00;;;;;;;7.30;2.42;;;10.10;99.90;;;;;;5151073;27;20031;-73
2022/11/06 05:20:26;;;;;;;5.25;2.28;;;10.20;99.90;;;;;;5117796;28;20077;-73
2022/11/06 05:22:59;;;;;;;6.07;2.53;;;10.20;99.90;;;;;;5117965;28;20035;-73
2022/11/06 05:25:31;;;;;;;9.75;2.60;;;10.20;99.90;;;;;;5118022;28;20031;-73
2022/11/06 05:27:57;;;;;;;7.53;3.47;;;10.20;99.90;;;;;;5117822;28;20082;-73
2022/11/06 05:30:24;;;;;;;7.57;3.85;;;10.10;99.90;;;;;;5116689;28;20119;-73
2022/11/06 05:32:50;;;;;;;5.75;3.53;;;10.10;99.90;;;;;;5117890;28;20023;-73
2022/11/06 05:35:17;;;;;;;5.45;2.65;;;10.10;99.90;;;;;;5116565;28;20503;-73
2022/11/06 05:37:43;;;;;;;9.20;3.20;;;10.20;99.90;;;;;;5116381;28;20547;-73
2022/11/06 05:40:10;;;;;;;4.55;2.60;;;10.10;99.90;;;;;;5117339;28;20067;-73
2022/11/06 05:42:37;;;;;;;6.68;3.22;;;10.10;99.90;;;;;;5117606;28;20412;-73
2022/11/06 05:45:04;;;;;;;4.88;2.35;;;10.10;99.90;;;;;;5117795;28;20107;-73
2022/11/06 05:47:30;;;;;;;6.30;2.83;;;10.10;99.90;;;;;;5117590;28;20028;-73
2022/11/06 05:49:56;;;;;;;9.82;4.25;;;10.10;99.90;;;;;;5117512;28;20464;-73
2022/11/06 05:52:22;;;;;;;15.25;3.92;;;10.10;99.90;;;;;;5117349;28;20073;-72
2022/11/06 05:54:48;;;;;;;10.73;4.00;;;10.20;99.90;;;;;;5117305;28;20107;-72
2022/11/06 05:57:14;;;;;;;8.10;3.40;;;10.20;99.90;;;;;;5117123;28;20067;-72
2022/11/06 05:59:40;;;;;;;7.60;3.53;;;10.20;99.90;;;;;;5117202;28;20039;-73
2022/11/06 06:02:05;;;;;;;8.18;2.97;;;10.20;99.90;;;;;;5117151;28;20038;-72
2022/11/06 06:04:31;;;;;;;9.45;4.20;;;10.20;99.90;;;;;;5117150;28;20070;-72
2022/11/06 06:06:57;;;;;;;7.30;3.80;;;10.20;99.90;;;;;;5116941;28;20023;-72
2022/11/06 06:09:23;;;;;;;9.38;4.30;;;10.20;99.90;;;;;;5115855;28;20027;-72
2022/11/06 06:11:51;;;;;;;16.33;5.65;;;10.20;99.90;;;;;;5116913;28;20020;-73
2022/11/06 06:14:17;;;;;;;14.18;5.10;;;10.20;99.90;;;;;;5116937;28;20030;-72
2022/11/06 06:16:44;;;;;;;16.98;5.68;;;10.30;99.90;;;;;;5115672;28;20129;-72
2022/11/06 06:19:09;;;;;;;13.85;5.20;;;10.40;99.90;;;;;;5116859;28;20568;-72
2022/11/06 06:21:35;;;;;;;12.43;5.25;;;10.30;99.90;;;;;;5116830;28;20039;-73
2022/11/06 06:24:03;;;;;;;16.48;6.32;;;10.30;99.90;;;;;;5117029;28;20032;-72
2022/11/06 06:26:29;;;;;;;11.15;5.50;;;10.20;99.90;;;;;;5116807;28;20027;-73
2022/11/06 06:28:55;;;;;;;14.40;5.70;;;10.20;99.90;;;;;;5116654;28;20067;-72
2022/11/06 06:31:21;;;;;;;20.05;6.38;;;10.20;99.90;;;;;;5116540;28;20016;-72
2022/11/06 06:33:47;;;;;;;19.73;6.90;;;10.20;99.90;;;;;;5116620;28;20421;-72
2022/11/06 06:36:13;;;;;;;24.08;7.38;;;10.30;99.90;;;;;;5116484;28;20107;-72
2022/11/06 06:38:39;;;;;;;25.80;8.45;;;10.30;99.90;;;;;;5116411;28;20069;-72
2022/11/06 06:41:07;;;;;;;33.08;11.50;;;10.40;99.90;;;;;;5116224;28;20047;-72
2022/11/06 06:43:33;;;;;;;43.45;17.73;;;10.30;99.90;;;;;;5116213;28;20076;-72
2022/11/06 06:46:05;;;;;;;25.95;11.15;;;10.40;99.90;;;;;;5114856;28;20046;-72
2022/11/06 06:48:31;;;;;;;17.63;7.95;;;10.50;99.90;;;;;;5116087;28;20189;-72
2022/11/06 06:50:59;;;;;;;25.08;8.63;;;10.50;99.90;;;;;;5114795;28;20098;-72
2022/11/06 06:53:25;;;;;;;20.92;7.95;;;10.50;99.90;;;;;;5115402;28;20047;-72
2022/11/06 06:55:51;;;;;;;17.00;7.47;;;10.60;99.90;;;;;;5116077;28;20061;-72
2022/11/06 06:58:17;;;;;;;15.20;6.43;;;10.50;99.90;;;;;;5115836;28;20093;-73
2022/11/06 07:00:44;;;;;;;16.08;7.13;;;10.60;99.90;;;;;;5115836;28;20105;-73
2022/11/06 07:03:10;;;;;;;15.95;6.80;;;10.50;99.90;;;;;;5115795;28;20097;-72
2022/11/06 07:05:36;;;;;;;13.25;6.13;;;10.50;99.90;;;;;;5116021;28;20032;-72
2022/11/06 07:08:01;;;;;;;13.55;6.65;;;10.50;99.90;;;;;;5115754;28;20065;-72
2022/11/06 07:10:29;;;;;;;10.75;5.75;;;10.50;99.90;;;;;;5115895;28;20484;-72
2022/11/06 07:12:55;;;;;;;18.00;6.55;;;10.50;99.90;;;;;;5115713;28;20031;-73
2022/11/06 07:15:21;;;;;;;14.15;7.10;;;10.50;99.90;;;;;;5115649;28;20169;-72
2022/11/06 07:17:47;;;;;;;12.48;6.38;;;10.50;99.90;;;;;;5115797;28;20043;-73
2022/11/06 07:20:13;;;;;;;14.18;5.40;;;10.50;99.90;;;;;;5115637;28;20019;-72
2022/11/06 07:22:39;;;;;;;7.88;4.25;;;10.50;99.90;;;;;;5115605;28;20451;-72
2022/11/06 07:25:05;;;;;;;11.63;5.38;;;10.50;99.90;;;;;;5115531;28;20055;-72
2022/11/06 07:27:32;;;;;;;10.85;4.60;;;10.40;99.90;;;;;;5115318;28;20078;-72
2022/11/06 07:29:59;;;;;;;7.95;3.78;;;10.50;99.90;;;;;;5115638;28;20472;-73
2022/11/06 07:32:25;;;;;;;9.93;5.43;;;10.50;99.90;;;;;;5114249;28;20027;-73
2022/11/06 07:34:51;;;;;;;14.63;6.18;;;10.50;99.90;;;;;;5115466;28;20100;-72
2022/11/06 07:37:17;;;;;;;14.00;8.50;;;10.60;99.90;;;;;;5114093;28;20523;-73
2022/11/06 07:39:43;;;;;;;12.45;6.75;;;10.60;99.90;;;;;;5115392;28;20034;-73
2022/11/06 07:42:09;;;;;;;18.80;6.40;;;10.70;99.90;;;;;;5115263;28;20039;-72
2022/11/06 07:44:36;;;;;;;17.63;5.75;;;10.70;99.90;;;;;;5114235;28;20032;-73
2022/11/06 07:47:02;;;;;;;8.02;3.97;;;10.70;99.90;;;;;;5115332;28;20165;-73
2022/11/06 07:49:28;;;;;;;13.90;6.32;;;10.70;99.90;;;;;;5115109;28;20015;-73
2022/11/06 07:51:53;;;;;;;16.48;8.77;;;10.70;99.90;;;;;;5115241;28;20030;-74
2022/11/06 07:54:19;;;;;;;22.15;8.23;;;10.80;99.90;;;;;;5115262;28;20069;-73
2022/11/06 07:56:45;;;;;;;24.38;8.95;;;10.80;99.90;;;;;;5114745;28;20087;-72
2022/11/06 07:59:11;;;;;;;18.73;8.60;;;10.80;99.90;;;;;;5113987;28;20476;-73
2022/11/06 08:01:37;;;;;;;24.25;9.73;;;10.80;99.90;;;;;;5114016;28;20028;-73
2022/11/06 08:04:03;;;;;;;28.17;12.85;;;10.80;99.90;;;;;;5116835;28;20114;-73
2022/11/06 08:06:29;;;;;;;33.20;13.00;;;10.80;99.90;;;;;;5117940;28;20031;-73
2022/11/06 08:08:55;;;;;;;27.40;10.20;;;10.80;99.90;;;;;;5119160;28;20032;-73
2022/11/06 08:11:20;;;;;;;21.88;8.95;;;10.80;99.90;;;;;;5119053;28;20080;-73
2022/11/06 08:13:46;;;;;;;20.05;8.23;;;10.80;99.90;;;;;;5119122;28;20020;-74
2022/11/06 08:16:13;;;;;;;18.67;8.68;;;10.80;99.90;;;;;;5118955;28;20458;-73
2022/11/06 08:18:40;;;;;;;21.50;9.15;;;10.80;99.90;;;;;;5119165;28;20080;-73
2022/11/06 08:21:06;;;;;;;25.08;10.18;;;10.80;99.90;;;;;;5119056;28;20028;-73
2022/11/06 08:23:34;;;;;;;20.38;9.27;;;10.90;99.90;;;;;;5119107;28;20369;-73
2022/11/06 08:26:02;;;;;;;24.50;10.25;;;10.80;99.90;;;;;;5118898;28;20385;-73
2022/11/06 08:28:28;;;;;;;14.32;6.88;;;10.90;99.90;;;;;;5118787;28;20027;-73
2022/11/06 08:30:55;;;;;;;19.27;7.38;;;10.80;99.90;;;;;;5118828;28;20031;-74
2022/11/06 08:33:21;;;;;;;10.52;5.70;;;10.80;99.90;;;;;;5118718;28;20020;-73
2022/11/06 08:35:48;;;;;;;16.45;7.32;;;10.70;99.90;;;;;;5118676;28;20450;-74
2022/11/06 08:38:14;;;;;;;20.13;8.25;;;10.80;99.90;;;;;;5118559;28;20531;-74
2022/11/06 08:40:40;;;;;;;30.52;11.20;;;10.70;99.90;;;;;;5118515;28;20038;-74
2022/11/06 08:43:09;;;;;;;35.33;10.68;;;10.80;99.90;;;;;;5118603;28;20027;-74
2022/11/06 08:45:37;;;;;;;28.05;8.35;;;10.80;99.90;;;;;;5118560;28;20042;-73
2022/11/06 08:48:04;;;;;;;23.88;7.30;;;10.80;99.90;;;;;;5118298;28;20057;-74
2022/11/06 08:50:31;;;;;;;17.63;6.15;;;10.80;99.90;;;;;;5118414;28;20047;-74
2022/11/06 08:52:58;;;;;;;18.10;7.55;;;10.80;99.90;;;;;;5118243;28;20023;-74
2022/11/06 08:55:24;;;;;;;33.25;9.15;;;10.70;99.90;;;;;;5118385;28;20629;-74
2022/11/06 08:57:50;;;;;;;34.10;10.48;;;10.70;99.90;;;;;;5118141;28;20134;-73
2022/11/06 09:00:16;;;;;;;27.95;10.50;;;10.70;99.90;;;;;;5118406;28;20039;-73
2022/11/06 09:02:42;;;;;;;24.20;9.35;;;10.60;99.90;;;;;;5118222;28;20089;-74
2022/11/06 09:05:08;;;;;;;22.60;8.82;;;10.50;99.90;;;;;;5118237;28;20047;-73
2022/11/06 09:07:34;;;;;;;16.63;8.52;;;10.70;99.90;;;;;;5117970;28;20027;-73
2022/11/06 09:10:00;;;;;;;38.17;19.58;;;10.70;99.90;;;;;;5118234;28;20406;-73
2022/11/06 09:12:25;;;;;;;46.00;17.67;;;10.60;99.90;;;;;;5117986;28;20034;-73
2022/11/06 09:14:51;;;;;;;32.45;13.63;;;10.60;99.90;;;;;;5117747;28;20023;-74
2022/11/06 09:17:22;;;;;;;23.30;10.77;;;10.60;99.90;;;;;;5117676;28;20464;-73
2022/11/06 09:19:51;;;;;;;21.17;9.50;;;10.60;99.90;;;;;;5117906;28;20415;-74
2022/11/06 09:22:18;;;;;;;26.50;9.38;;;10.80;99.90;;;;;;5117756;28;20081;-73
2022/11/06 09:24:44;;;;;;;23.23;9.35;;;10.70;99.90;;;;;;5117901;28;20034;-73
2022/11/06 09:27:11;;;;;;;21.48;9.63;;;10.70;99.90;;;;;;5117678;27;20204;-74
2022/11/06 09:29:42;;;;;;;25.15;10.60;;;10.70;99.90;;;;;;5117603;27;20023;-74
2022/11/06 09:32:09;;;;;;;29.15;10.48;;;10.70;99.90;;;;;;5117823;28;20030;-73
2022/11/06 09:34:35;;;;;;;25.95;10.00;;;10.70;99.90;;;;;;5117597;28;20468;-73
2022/11/06 09:37:02;;;;;;;40.30;11.75;;;10.70;99.90;;;;;;5116276;28;20093;-74
2022/11/06 09:39:27;;;;;;;14.45;7.60;;;10.70;99.90;;;;;;5117465;28;20051;-74
2022/11/06 09:41:57;;;;;;;21.33;8.27;;;10.80;99.90;;;;;;5117661;28;20048;-73
2022/11/06 09:44:41;;;;;;;17.75;8.35;;;10.80;99.90;;;;;;5117488;28;20488;-73
2022/11/06 09:47:14;;;;;;;16.77;8.07;;;10.70;99.90;;;;;;5117190;28;20081;-73
2022/11/06 09:49:46;;;;;;;17.92;8.25;;;10.70;99.90;;;;;;5117322;28;20024;-73
2022/11/06 09:52:21;;;;;;;22.45;8.45;;;10.80;99.90;;;;;;5117424;28;20103;-73
2022/11/06 09:54:57;;;;;;;23.13;8.60;;;10.80;99.90;;;;;;5117363;28;20028;-73
2022/11/06 09:57:41;;;;;;;9.05;5.45;;;10.80;99.90;;;;;;5117053;28;20051;-74
2022/11/06 10:00:13;;;;;;;12.40;6.88;;;10.90;99.90;;;;;;5116066;28;20027;-74
2022/11/06 10:02:49;;;;;;;15.20;8.07;;;10.90;99.90;;;;;;5115814;28;20036;-74
2022/11/06 10:05:28;;;;;;;19.13;8.93;;;11.00;99.90;;;;;;5117108;28;20058;-74
2022/11/06 10:07:58;;;;;;;16.58;9.32;;;11.00;99.90;;;;;;5117042;28;20034;-74
2022/11/06 10:10:48;;;;;;;12.52;7.47;;;11.00;99.90;;;;;;5117424;28;20032;-74
2022/11/06 10:13:40;;;;;;;12.80;7.82;;;10.90;99.90;;;;;;5117221;28;20028;-73
2022/11/06 10:16:29;;;;;;;15.63;7.80;;;10.90;99.90;;;;;;5117084;28;20051;-73
2022/11/06 10:19:09;;;;;;;19.85;9.20;;;10.90;99.90;;;;;;5117182;28;20327;-73
2022/11/06 10:21:59;;;;;;;14.77;7.95;;;10.80;99.90;;;;;;5116879;28;20024;-72
2022/11/06 10:24:44;;;;;;;17.30;9.18;;;10.70;99.90;;;;;;5116972;28;20027;-72
2022/11/06 10:27:17;;;;;;;12.13;7.22;;;10.80;99.90;;;;;;5115872;28;20036;-73
2022/11/06 10:30:17;;;;;;;19.15;11.93;;;10.80;99.90;;;;;;5116949;28;20031;-73
2022/11/06 10:33:03;;;;;;;26.27;16.08;;;10.80;99.90;;;;;;5083740;28;20138;-73
2022/11/06 10:35:56;;;;;;;27.48;13.40;;;10.90;99.90;;;;;;5116989;28;20512;-73
2022/11/06 10:38:31;;;;;;;22.55;11.73;;;10.70;99.90;;;;;;5116696;28;20039;-72
2022/11/06 10:40:58;;;;;;;21.90;10.63;;;10.70;99.90;;;;;;5116643;28;20430;-72
2022/11/06 10:43:34;;;;;;;38.55;16.52;;;10.80;99.90;;;;;;5116546;28;20038;-73
2022/11/06 10:46:11;;;;;;;37.45;14.88;;;10.70;99.90;;;;;;5116424;28;20460;-72
2022/11/06 10:48:42;;;;;;;33.83;16.02;;;10.70;99.90;;;;;;5116358;28;20024;-72
2022/11/06 10:51:26;;;;;;;20.33;11.38;;;10.70;99.90;;;;;;5116711;28;20027;-72
2022/11/06 10:54:18;;;;;;;14.45;8.32;;;10.80;99.90;;;;;;5116492;28;20024;-72
2022/11/06 10:56:57;;;;;;;10.93;7.55;;;10.90;99.90;;;;;;5116249;28;20032;-72
2022/11/06 10:59:23;;;;;;;24.45;11.35;;;10.90;99.90;;;;;;5116535;28;20435;-72
2022/11/06 11:01:49;;;;;;;19.73;9.93;;;10.90;99.90;;;;;;5116418;28;20114;-72
2022/11/06 11:04:15;;;;;;;24.65;11.30;;;10.80;99.90;;;;;;5116161;28;20062;-72
2022/11/06 11:06:41;;;;;;;16.13;9.80;;;10.80;99.90;;;;;;5116132;28;20055;-72
2022/11/06 11:09:33;;;;;;;13.60;9.07;;;10.80;99.90;;;;;;5116011;28;20118;-72
2022/11/06 11:11:59;;;;;;;17.25;8.65;;;10.80;99.90;;;;;;5112802;28;20545;-72
2022/11/06 11:14:30;;;;;;;12.55;7.38;;;10.90;99.90;;;;;;5116024;28;20069;-72
2022/11/06 11:17:00;;;;;;;15.30;7.68;;;11.00;99.90;;;;;;5116043;28;20111;-72
2022/11/06 11:19:40;;;;;;;12.68;8.50;;;10.90;99.90;;;;;;5115985;28;20076;-72
2022/11/06 11:22:15;;;;;;;12.57;6.78;;;10.90;99.90;;;;;;5115946;28;20039;-72
2022/11/06 11:25:04;;;;;;;9.20;6.47;;;10.80;99.90;;;;;;5115991;28;20077;-72
2022/11/06 11:27:42;;;;;;;17.27;7.68;;;10.80;99.90;;;;;;5115762;28;20042;-74
2022/11/06 11:30:25;;;;;;;20.05;10.30;;;10.90;99.90;;;;;;5115905;28;20032;-73
2022/11/06 11:32:52;;;;;;;17.42;9.07;;;10.80;99.90;;;;;;5116038;28;20015;-73
2022/11/06 11:35:24;;;;;;;17.48;9.48;;;10.90;99.90;;;;;;5115782;28;20031;-73
2022/11/06 11:37:50;;;;;;;14.68;9.25;;;10.90;99.90;;;;;;5115931;28;20028;-73
2022/11/06 11:40:34;;;;;;;12.25;8.77;;;10.90;99.90;;;;;;5115619;28;20395;-73
2022/11/06 11:43:18;;;;;;;15.75;10.00;;;11.10;99.90;;;;;;5115602;28;20370;-73
2022/11/06 11:46:00;;;;;;;20.45;10.27;;;10.90;99.90;;;;;;5115599;28;20051;-73
2022/11/06 11:48:26;;;;;;;9.60;6.53;;;10.90;99.90;;;;;;5115342;28;20103;-73
2022/11/06 11:50:52;;;;;;;11.38;7.88;;;10.80;99.90;;;;;;5115462;28;20110;-73
2022/11/06 11:53:20;;;;;;;8.15;5.47;;;10.90;99.90;;;;;;5115512;28;20507;-73
2022/11/06 11:55:51;;;;;;;8.75;4.68;;;10.90;99.90;;;;;;5115661;28;20134;-73
2022/11/06 11:58:20;;;;;;;10.77;6.53;;;10.90;99.90;;;;;;5115344;28;20515;-73
2022/11/06 12:01:01;;;;;;;8.07;4.93;;;11.00;99.90;;;;;;5114315;28;20056;-73
2022/11/06 12:03:33;;;;;;;10.88;6.65;;;11.00;99.90;;;;;;5114232;28;20465;-73
2022/11/06 12:06:16;;;;;;;14.15;8.05;;;11.10;99.90;;;;;;5114454;28;20035;-74
2022/11/06 12:08:49;;;;;;;9.63;7.15;;;11.00;99.90;;;;;;5115373;28;20063;-73
2022/11/06 12:11:22;;;;;;;12.98;7.35;;;11.00;99.90;;;;;;5115635;28;20062;-73
2022/11/06 12:14:26;;;;;;;17.60;9.10;;;11.00;99.90;;;;;;5115495;28;20028;-73
2022/11/06 12:17:00;;;;;;;12.02;6.28;;;11.00;99.90;;;;;;5115771;28;20032;-73
2022/11/06 12:19:29;;;;;;;15.70;8.65;;;11.00;99.90;;;;;;5115498;28;20031;-74
2022/11/06 12:22:00;;;;;;;14.60;7.97;;;11.00;99.90;;;;;;5115651;28;20045;-73
2022/11/06 12:25:01;;;;;;;8.23;5.80;;;11.10;99.90;;;;;;5115554;28;20102;-73
2022/11/06 12:27:50;;;;;;;12.55;7.03;;;11.10;99.90;;;;;;5106090;28;20044;-73
2022/11/06 12:30:18;;;;;;;16.35;9.60;;;11.10;99.90;;;;;;5115409;28;20047;-73
2022/11/06 12:33:15;;;;;;;10.15;6.25;;;11.10;99.90;;;;;;5115441;28;20020;-73
2022/11/06 12:36:05;;;;;;;17.85;10.00;;;11.10;99.90;;;;;;5115275;28;20028;-73
2022/11/06 12:38:45;;;;;;;12.48;8.07;;;11.00;99.90;;;;;;5115404;28;20058;-73
2022/11/06 12:41:26;;;;;;;13.35;7.43;;;10.90;99.90;;;;;;5114128;28;20046;-73
2022/11/06 12:43:52;;;;;;;7.75;5.70;;;11.00;99.90;;;;;;5114191;28;20473;-73
2022/11/06 12:46:22;;;;;;;18.70;10.07;;;11.00;99.90;;;;;;5115199;28;20362;-73
2022/11/06 12:49:13;;;;;;;15.80;8.18;;;11.00;99.90;;;;;;5115211;28;20023;-73
2022/11/06 12:51:57;;;;;;;7.97;5.22;;;11.00;99.90;;;;;;5117751;28;20024;-73
2022/11/06 12:55:00;;;;;;;12.75;6.50;;;11.00;99.90;;;;;;5119089;27;20092;-73
2022/11/06 12:57:59;;;;;;;6.55;4.35;;;11.00;99.90;;;;;;5118604;28;20039;-73
2022/11/06 13:01:12;;;;;;;11.73;7.45;;;11.00;99.90;;;;;;5118864;28;20515;-73
2022/11/06 13:03:53;;;;;;;10.00;5.78;;;11.00;99.90;;;;;;5108517;28;20039;-73
2022/11/06 13:06:56;;;;;;;12.00;8.02;;;11.00;99.90;;;;;;5118693;28;20032;-73
2022/11/06 13:09:26;;;;;;;15.70;8.57;;;11.00;99.90;;;;;;5118387;28;20443;-73
2022/11/06 13:12:05;;;;;;;14.50;9.05;;;11.00;99.90;;;;;;5118372;28;20359;-73